sensor_id;sensor_type;location;lat;lon;timestamp;P1;durP1;ratioP1;P2;durP2;ratioP2
10319;SDS011;5205;52.168;5.420;2023-11-19T00:00:31;7.28;;;3.22;;
10319;SDS011;5205;52.168;5.420;2023-11-19T00:02:58;14.20;;;3.58;;
10319;SDS011;5205;52.168;5.420;2023-11-19T00:05:25;13.40;;;3.28;;
10319;SDS011;5205;52.168;5.420;2023-11-19T00:07:54;13.57;;;2.78;;
10319;SDS011;5205;52.168;5.420;2023-11-19T00:10:21;18.58;;;4.60;;
10319;SDS011;5205;52.168;5.420;2023-11-19T00:12:48;11.60;;;3.38;;
10319;SDS011;5205;52.168;5.420;2023-11-19T00:15:16;12.73;;;3.17;;
10319;SDS011;5205;52.168;5.420;2023-11-19T00:17:44;13.70;;;3.50;;
10319;SDS011;5205;52.168;5.420;2023-11-19T00:20:11;18.55;;;3.72;;
10319;SDS011;5205;52.168;5.420;2023-11-19T00:22:38;15.70;;;3.30;;
10319;SDS011;5205;52.168;5.420;2023-11-19T00:25:08;13.52;;;2.83;;
10319;SDS011;5205;52.168;5.420;2023-11-19T00:27:35;14.82;;;3.47;;
10319;SDS011;5205;52.168;5.420;2023-11-19T00:30:02;11.85;;;4.68;;
10319;SDS011;5205;52.168;5.420;2023-11-19T00:32:30;16.50;;;4.13;;
10319;SDS011;5205;52.168;5.420;2023-11-19T00:34:57;9.70;;;3.03;;
10319;SDS011;5205;52.168;5.420;2023-11-19T00:37:24;17.95;;;3.33;;
10319;SDS011;5205;52.168;5.420;2023-11-19T00:39:51;18.58;;;3.20;;
10319;SDS011;5205;52.168;5.420;2023-11-19T00:42:20;11.82;;;2.65;;
10319;SDS011;5205;52.168;5.420;2023-11-19T00:44:47;9.43;;;2.33;;
10319;SDS011;5205;52.168;5.420;2023-11-19T00:47:14;15.20;;;3.33;;
10319;SDS011;5205;52.168;5.420;2023-11-19T00:49:41;15.65;;;3.47;;
10319;SDS011;5205;52.168;5.420;2023-11-19T00:52:08;19.88;;;3.70;;
10319;SDS011;5205;52.168;5.420;2023-11-19T00:54:35;18.45;;;3.60;;
10319;SDS011;5205;52.168;5.420;2023-11-19T00:57:03;22.42;;;3.47;;
10319;SDS011;5205;52.168;5.420;2023-11-19T00:59:32;12.32;;;3.10;;
10319;SDS011;5205;52.168;5.420;2023-11-19T01:01:59;19.67;;;4.32;;
10319;SDS011;5205;52.168;5.420;2023-11-19T01:04:28;26.40;;;3.67;;
10319;SDS011;5205;52.168;5.420;2023-11-19T01:06:55;19.67;;;4.75;;
10319;SDS011;5205;52.168;5.420;2023-11-19T01:09:22;23.33;;;4.55;;
10319;SDS011;5205;52.168;5.420;2023-11-19T01:11:49;21.90;;;3.47;;
10319;SDS011;5205;52.168;5.420;2023-11-19T01:14:16;22.98;;;3.78;;
10319;SDS011;5205;52.168;5.420;2023-11-19T01:16:45;15.07;;;3.17;;
10319;SDS011;5205;52.168;5.420;2023-11-19T01:19:12;26.83;;;3.88;;
10319;SDS011;5205;52.168;5.420;2023-11-19T01:21:39;17.58;;;2.80;;
10319;SDS011;5205;52.168;5.420;2023-11-19T01:24:06;26.73;;;3.28;;
10319;SDS011;5205;52.168;5.420;2023-11-19T01:26:34;17.13;;;3.00;;
10319;SDS011;5205;52.168;5.420;2023-11-19T01:29:02;22.40;;;3.63;;
10319;SDS011;5205;52.168;5.420;2023-11-19T01:31:29;29.98;;;5.68;;
10319;SDS011;5205;52.168;5.420;2023-11-19T01:34:00;20.45;;;3.85;;
10319;SDS011;5205;52.168;5.420;2023-11-19T01:36:27;21.05;;;4.15;;
10319;SDS011;5205;52.168;5.420;2023-11-19T01:38:54;25.80;;;4.22;;
10319;SDS011;5205;52.168;5.420;2023-11-19T01:41:21;23.75;;;3.30;;
10319;SDS011;5205;52.168;5.420;2023-11-19T01:43:50;22.08;;;3.28;;
10319;SDS011;5205;52.168;5.420;2023-11-19T01:46:17;25.85;;;3.85;;
10319;SDS011;5205;52.168;5.420;2023-11-19T01:48:44;24.50;;;3.53;;
10319;SDS011;5205;52.168;5.420;2023-11-19T01:51:13;28.13;;;4.30;;
10319;SDS011;5205;52.168;5.420;2023-11-19T01:53:42;18.30;;;2.83;;
10319;SDS011;5205;52.168;5.420;2023-11-19T01:56:09;29.08;;;3.75;;
10319;SDS011;5205;52.168;5.420;2023-11-19T01:58:38;24.40;;;4.40;;
10319;SDS011;5205;52.168;5.420;2023-11-19T02:01:09;26.40;;;3.92;;
10319;SDS011;5205;52.168;5.420;2023-11-19T02:03:37;32.85;;;3.60;;
10319;SDS011;5205;52.168;5.420;2023-11-19T02:06:05;26.58;;;4.43;;
10319;SDS011;5205;52.168;5.420;2023-11-19T02:08:33;28.77;;;4.22;;
10319;SDS011;5205;52.168;5.420;2023-11-19T02:11:00;23.48;;;3.72;;
10319;SDS011;5205;52.168;5.420;2023-11-19T02:13:28;25.67;;;3.90;;
10319;SDS011;5205;52.168;5.420;2023-11-19T02:15:55;37.05;;;4.70;;
10319;SDS011;5205;52.168;5.420;2023-11-19T02:18:22;29.95;;;3.80;;
10319;SDS011;5205;52.168;5.420;2023-11-19T02:20:52;20.38;;;3.55;;
10319;SDS011;5205;52.168;5.420;2023-11-19T02:23:20;29.83;;;4.70;;
10319;SDS011;5205;52.168;5.420;2023-11-19T02:25:50;23.15;;;3.47;;
10319;SDS011;5205;52.168;5.420;2023-11-19T02:30:48;21.13;;;3.75;;
10319;SDS011;5205;52.168;5.420;2023-11-19T02:33:15;27.05;;;3.95;;
10319;SDS011;5205;52.168;5.420;2023-11-19T02:35:42;31.50;;;5.15;;
10319;SDS011;5205;52.168;5.420;2023-11-19T02:38:09;31.40;;;4.35;;
10319;SDS011;5205;52.168;5.420;2023-11-19T02:40:39;28.75;;;4.80;;
10319;SDS011;5205;52.168;5.420;2023-11-19T02:43:06;27.33;;;4.25;;
10319;SDS011;5205;52.168;5.420;2023-11-19T02:45:33;26.38;;;4.40;;
10319;SDS011;5205;52.168;5.420;2023-11-19T02:48:02;28.85;;;3.65;;
10319;SDS011;5205;52.168;5.420;2023-11-19T02:50:31;29.55;;;4.20;;
10319;SDS011;5205;52.168;5.420;2023-11-19T02:52:58;34.85;;;4.45;;
10319;SDS011;5205;52.168;5.420;2023-11-19T02:55:26;27.05;;;4.68;;
10319;SDS011;5205;52.168;5.420;2023-11-19T02:57:56;30.08;;;4.68;;
10319;SDS011;5205;52.168;5.420;2023-11-19T03:00:24;26.48;;;4.43;;
10319;SDS011;5205;52.168;5.420;2023-11-19T03:02:59;24.58;;;4.43;;
10319;SDS011;5205;52.168;5.420;2023-11-19T03:05:36;37.65;;;5.15;;
10319;SDS011;5205;52.168;5.420;2023-11-19T03:08:05;40.15;;;4.88;;
10319;SDS011;5205;52.168;5.420;2023-11-19T03:10:32;26.50;;;4.35;;
10319;SDS011;5205;52.168;5.420;2023-11-19T03:12:59;29.30;;;4.28;;
10319;SDS011;5205;52.168;5.420;2023-11-19T03:15:27;30.98;;;4.32;;
10319;SDS011;5205;52.168;5.420;2023-11-19T03:17:54;23.83;;;3.85;;
10319;SDS011;5205;52.168;5.420;2023-11-19T03:20:22;36.03;;;5.50;;
10319;SDS011;5205;52.168;5.420;2023-11-19T03:22:54;34.38;;;5.72;;
10319;SDS011;5205;52.168;5.420;2023-11-19T03:25:22;35.67;;;4.90;;
10319;SDS011;5205;52.168;5.420;2023-11-19T03:27:52;36.10;;;5.13;;
10319;SDS011;5205;52.168;5.420;2023-11-19T03:30:19;32.40;;;4.38;;
10319;SDS011;5205;52.168;5.420;2023-11-19T03:32:47;30.15;;;5.15;;
10319;SDS011;5205;52.168;5.420;2023-11-19T03:35:14;43.03;;;5.95;;
10319;SDS011;5205;52.168;5.420;2023-11-19T03:37:43;24.92;;;5.25;;
10319;SDS011;5205;52.168;5.420;2023-11-19T03:40:12;30.70;;;4.28;;
10319;SDS011;5205;52.168;5.420;2023-11-19T03:42:39;34.15;;;5.60;;
10319;SDS011;5205;52.168;5.420;2023-11-19T03:45:06;28.15;;;4.35;;
10319;SDS011;5205;52.168;5.420;2023-11-19T03:47:34;34.55;;;4.50;;
10319;SDS011;5205;52.168;5.420;2023-11-19T03:50:01;30.73;;;4.22;;
10319;SDS011;5205;52.168;5.420;2023-11-19T03:52:29;30.45;;;5.32;;
10319;SDS011;5205;52.168;5.420;2023-11-19T03:54:56;27.38;;;4.65;;
10319;SDS011;5205;52.168;5.420;2023-11-19T03:57:24;39.88;;;4.85;;
10319;SDS011;5205;52.168;5.420;2023-11-19T03:59:52;34.10;;;4.20;;
10319;SDS011;5205;52.168;5.420;2023-11-19T04:02:20;35.90;;;4.38;;
10319;SDS011;5205;52.168;5.420;2023-11-19T04:04:47;35.38;;;4.72;;
10319;SDS011;5205;52.168;5.420;2023-11-19T04:07:14;23.65;;;4.13;;
10319;SDS011;5205;52.168;5.420;2023-11-19T04:09:41;31.73;;;5.25;;
10319;SDS011;5205;52.168;5.420;2023-11-19T04:12:09;29.02;;;4.43;;
10319;SDS011;5205;52.168;5.420;2023-11-19T04:14:37;42.53;;;5.75;;
10319;SDS011;5205;52.168;5.420;2023-11-19T04:17:05;40.45;;;5.50;;
10319;SDS011;5205;52.168;5.420;2023-11-19T04:19:32;40.25;;;5.22;;
10319;SDS011;5205;52.168;5.420;2023-11-19T04:21:59;33.63;;;4.88;;
10319;SDS011;5205;52.168;5.420;2023-11-19T04:24:27;36.85;;;4.75;;
10319;SDS011;5205;52.168;5.420;2023-11-19T04:26:54;40.72;;;5.55;;
10319;SDS011;5205;52.168;5.420;2023-11-19T04:29:21;46.35;;;6.38;;
10319;SDS011;5205;52.168;5.420;2023-11-19T04:31:49;43.10;;;4.95;;
10319;SDS011;5205;52.168;5.420;2023-11-19T04:34:16;36.25;;;5.53;;
10319;SDS011;5205;52.168;5.420;2023-11-19T04:36:43;36.10;;;5.65;;
10319;SDS011;5205;52.168;5.420;2023-11-19T04:39:10;31.58;;;6.43;;
10319;SDS011;5205;52.168;5.420;2023-11-19T04:41:45;52.55;;;7.07;;
10319;SDS011;5205;52.168;5.420;2023-11-19T04:44:13;39.72;;;6.03;;
10319;SDS011;5205;52.168;5.420;2023-11-19T04:46:41;44.50;;;5.57;;
10319;SDS011;5205;52.168;5.420;2023-11-19T04:49:10;49.40;;;5.03;;
10319;SDS011;5205;52.168;5.420;2023-11-19T04:51:38;32.35;;;4.80;;
10319;SDS011;5205;52.168;5.420;2023-11-19T04:54:05;37.45;;;4.60;;
10319;SDS011;5205;52.168;5.420;2023-11-19T04:56:33;30.52;;;4.65;;
10319;SDS011;5205;52.168;5.420;2023-11-19T04:59:01;42.17;;;5.05;;
10319;SDS011;5205;52.168;5.420;2023-11-19T05:01:28;41.13;;;5.50;;
10319;SDS011;5205;52.168;5.420;2023-11-19T05:03:56;37.20;;;3.97;;
10319;SDS011;5205;52.168;5.420;2023-11-19T05:06:26;39.63;;;5.45;;
10319;SDS011;5205;52.168;5.420;2023-11-19T05:08:54;34.40;;;5.22;;
10319;SDS011;5205;52.168;5.420;2023-11-19T05:11:21;35.08;;;5.43;;
10319;SDS011;5205;52.168;5.420;2023-11-19T05:13:49;27.10;;;4.50;;
10319;SDS011;5205;52.168;5.420;2023-11-19T05:16:16;28.70;;;5.10;;
10319;SDS011;5205;52.168;5.420;2023-11-19T05:18:45;35.90;;;5.40;;
10319;SDS011;5205;52.168;5.420;2023-11-19T05:21:12;38.80;;;5.32;;
10319;SDS011;5205;52.168;5.420;2023-11-19T05:23:41;34.28;;;4.82;;
10319;SDS011;5205;52.168;5.420;2023-11-19T05:26:08;33.60;;;4.93;;
10319;SDS011;5205;52.168;5.420;2023-11-19T05:28:37;38.33;;;4.88;;
10319;SDS011;5205;52.168;5.420;2023-11-19T05:31:07;39.83;;;5.55;;
10319;SDS011;5205;52.168;5.420;2023-11-19T05:33:34;38.50;;;4.32;;
10319;SDS011;5205;52.168;5.420;2023-11-19T05:36:01;37.92;;;5.55;;
10319;SDS011;5205;52.168;5.420;2023-11-19T05:38:29;27.27;;;4.30;;
10319;SDS011;5205;52.168;5.420;2023-11-19T05:40:57;36.53;;;7.03;;
10319;SDS011;5205;52.168;5.420;2023-11-19T05:43:25;34.95;;;5.35;;
10319;SDS011;5205;52.168;5.420;2023-11-19T05:45:52;32.58;;;4.63;;
10319;SDS011;5205;52.168;5.420;2023-11-19T05:48:19;34.65;;;4.93;;
10319;SDS011;5205;52.168;5.420;2023-11-19T05:50:46;32.80;;;5.25;;
10319;SDS011;5205;52.168;5.420;2023-11-19T05:53:14;29.80;;;4.53;;
10319;SDS011;5205;52.168;5.420;2023-11-19T05:55:42;31.40;;;4.63;;
10319;SDS011;5205;52.168;5.420;2023-11-19T05:58:15;23.52;;;4.20;;
10319;SDS011;5205;52.168;5.420;2023-11-19T06:00:42;41.78;;;4.38;;
10319;SDS011;5205;52.168;5.420;2023-11-19T06:03:09;35.00;;;4.68;;
10319;SDS011;5205;52.168;5.420;2023-11-19T06:05:36;33.47;;;5.18;;
10319;SDS011;5205;52.168;5.420;2023-11-19T06:08:03;31.02;;;4.13;;
10319;SDS011;5205;52.168;5.420;2023-11-19T06:10:32;35.75;;;5.75;;
10319;SDS011;5205;52.168;5.420;2023-11-19T06:12:59;36.10;;;4.55;;
10319;SDS011;5205;52.168;5.420;2023-11-19T06:15:31;30.25;;;4.30;;
10319;SDS011;5205;52.168;5.420;2023-11-19T06:17:58;37.15;;;4.97;;
10319;SDS011;5205;52.168;5.420;2023-11-19T06:20:26;30.88;;;4.80;;
10319;SDS011;5205;52.168;5.420;2023-11-19T06:22:54;27.13;;;4.53;;
10319;SDS011;5205;52.168;5.420;2023-11-19T06:25:21;33.15;;;5.18;;
10319;SDS011;5205;52.168;5.420;2023-11-19T06:27:49;39.08;;;5.15;;
10319;SDS011;5205;52.168;5.420;2023-11-19T06:30:16;29.35;;;4.55;;
10319;SDS011;5205;52.168;5.420;2023-11-19T06:32:44;37.53;;;5.60;;
10319;SDS011;5205;52.168;5.420;2023-11-19T06:35:12;36.03;;;5.63;;
10319;SDS011;5205;52.168;5.420;2023-11-19T06:37:40;31.85;;;5.40;;
10319;SDS011;5205;52.168;5.420;2023-11-19T06:40:07;30.40;;;3.97;;
10319;SDS011;5205;52.168;5.420;2023-11-19T06:42:35;29.58;;;4.95;;
10319;SDS011;5205;52.168;5.420;2023-11-19T06:45:03;23.52;;;4.55;;
10319;SDS011;5205;52.168;5.420;2023-11-19T06:47:31;30.30;;;5.15;;
10319;SDS011;5205;52.168;5.420;2023-11-19T06:49:59;45.85;;;5.97;;
10319;SDS011;5205;52.168;5.420;2023-11-19T06:52:29;35.38;;;4.90;;
10319;SDS011;5205;52.168;5.420;2023-11-19T06:54:56;28.50;;;4.68;;
10319;SDS011;5205;52.168;5.420;2023-11-19T06:57:23;23.85;;;4.38;;
10319;SDS011;5205;52.168;5.420;2023-11-19T06:59:50;31.27;;;4.90;;
10319;SDS011;5205;52.168;5.420;2023-11-19T07:02:17;29.55;;;4.53;;
10319;SDS011;5205;52.168;5.420;2023-11-19T07:04:44;24.17;;;3.33;;
10319;SDS011;5205;52.168;5.420;2023-11-19T07:07:13;28.65;;;4.00;;
10319;SDS011;5205;52.168;5.420;2023-11-19T07:09:40;28.30;;;4.80;;
10319;SDS011;5205;52.168;5.420;2023-11-19T07:12:07;28.17;;;4.40;;
10319;SDS011;5205;52.168;5.420;2023-11-19T07:14:35;37.00;;;4.95;;
10319;SDS011;5205;52.168;5.420;2023-11-19T07:17:02;39.60;;;5.72;;
10319;SDS011;5205;52.168;5.420;2023-11-19T07:19:30;30.98;;;3.78;;
10319;SDS011;5205;52.168;5.420;2023-11-19T07:21:57;28.48;;;5.15;;
10319;SDS011;5205;52.168;5.420;2023-11-19T07:24:25;27.17;;;4.85;;
10319;SDS011;5205;52.168;5.420;2023-11-19T07:26:53;33.53;;;5.05;;
10319;SDS011;5205;52.168;5.420;2023-11-19T07:29:20;28.85;;;4.20;;
10319;SDS011;5205;52.168;5.420;2023-11-19T07:31:48;22.48;;;3.55;;
10319;SDS011;5205;52.168;5.420;2023-11-19T07:34:16;39.60;;;5.97;;
10319;SDS011;5205;52.168;5.420;2023-11-19T07:36:43;36.80;;;4.88;;
10319;SDS011;5205;52.168;5.420;2023-11-19T07:39:10;29.83;;;4.68;;
10319;SDS011;5205;52.168;5.420;2023-11-19T07:41:39;40.42;;;5.10;;
10319;SDS011;5205;52.168;5.420;2023-11-19T07:44:06;27.65;;;4.68;;
10319;SDS011;5205;52.168;5.420;2023-11-19T07:46:33;34.45;;;4.38;;
10319;SDS011;5205;52.168;5.420;2023-11-19T07:49:00;28.85;;;5.45;;
10319;SDS011;5205;52.168;5.420;2023-11-19T07:51:27;24.30;;;3.72;;
10319;SDS011;5205;52.168;5.420;2023-11-19T07:53:55;26.17;;;4.90;;
10319;SDS011;5205;52.168;5.420;2023-11-19T07:56:22;31.23;;;4.88;;
10319;SDS011;5205;52.168;5.420;2023-11-19T07:58:50;30.63;;;4.32;;
10319;SDS011;5205;52.168;5.420;2023-11-19T08:01:17;28.35;;;4.22;;
10319;SDS011;5205;52.168;5.420;2023-11-19T08:03:44;30.60;;;3.95;;
10319;SDS011;5205;52.168;5.420;2023-11-19T08:06:12;34.65;;;5.03;;
10319;SDS011;5205;52.168;5.420;2023-11-19T08:08:39;29.58;;;4.25;;
10319;SDS011;5205;52.168;5.420;2023-11-19T08:11:06;30.73;;;4.65;;
10319;SDS011;5205;52.168;5.420;2023-11-19T08:13:33;33.03;;;4.88;;
10319;SDS011;5205;52.168;5.420;2023-11-19T08:16:02;27.45;;;4.00;;
10319;SDS011;5205;52.168;5.420;2023-11-19T08:18:29;28.42;;;4.75;;
10319;SDS011;5205;52.168;5.420;2023-11-19T08:20:56;33.50;;;4.50;;
10319;SDS011;5205;52.168;5.420;2023-11-19T08:23:24;31.40;;;4.57;;
10319;SDS011;5205;52.168;5.420;2023-11-19T08:25:53;29.70;;;4.15;;
10319;SDS011;5205;52.168;5.420;2023-11-19T08:28:20;43.22;;;5.28;;
10319;SDS011;5205;52.168;5.420;2023-11-19T08:30:47;32.13;;;4.30;;
10319;SDS011;5205;52.168;5.420;2023-11-19T08:33:16;36.55;;;5.53;;
10319;SDS011;5205;52.168;5.420;2023-11-19T08:35:43;30.25;;;4.00;;
10319;SDS011;5205;52.168;5.420;2023-11-19T08:38:12;24.58;;;4.43;;
10319;SDS011;5205;52.168;5.420;2023-11-19T08:40:39;30.73;;;4.75;;
10319;SDS011;5205;52.168;5.420;2023-11-19T08:43:06;41.33;;;5.45;;
10319;SDS011;5205;52.168;5.420;2023-11-19T08:45:33;34.78;;;4.55;;
10319;SDS011;5205;52.168;5.420;2023-11-19T08:48:01;32.17;;;4.90;;
10319;SDS011;5205;52.168;5.420;2023-11-19T08:50:29;29.10;;;4.65;;
10319;SDS011;5205;52.168;5.420;2023-11-19T08:52:56;35.20;;;4.60;;
10319;SDS011;5205;52.168;5.420;2023-11-19T08:55:23;32.80;;;5.25;;
10319;SDS011;5205;52.168;5.420;2023-11-19T08:57:51;28.23;;;3.70;;
10319;SDS011;5205;52.168;5.420;2023-11-19T09:00:18;38.75;;;5.80;;
10319;SDS011;5205;52.168;5.420;2023-11-19T09:02:46;31.42;;;4.38;;
10319;SDS011;5205;52.168;5.420;2023-11-19T09:05:13;28.10;;;4.60;;
10319;SDS011;5205;52.168;5.420;2023-11-19T09:07:41;33.22;;;5.40;;
10319;SDS011;5205;52.168;5.420;2023-11-19T09:10:09;31.05;;;4.47;;
10319;SDS011;5205;52.168;5.420;2023-11-19T09:12:36;32.65;;;5.15;;
10319;SDS011;5205;52.168;5.420;2023-11-19T09:15:03;28.67;;;4.07;;
10319;SDS011;5205;52.168;5.420;2023-11-19T09:17:31;29.58;;;4.55;;
10319;SDS011;5205;52.168;5.420;2023-11-19T09:19:58;31.95;;;4.65;;
10319;SDS011;5205;52.168;5.420;2023-11-19T09:22:25;35.20;;;4.55;;
10319;SDS011;5205;52.168;5.420;2023-11-19T09:24:54;26.58;;;4.63;;
10319;SDS011;5205;52.168;5.420;2023-11-19T09:27:21;28.85;;;5.30;;
10319;SDS011;5205;52.168;5.420;2023-11-19T09:29:48;33.03;;;4.97;;
10319;SDS011;5205;52.168;5.420;2023-11-19T09:32:20;25.73;;;4.40;;
10319;SDS011;5205;52.168;5.420;2023-11-19T09:34:47;33.10;;;4.65;;
10319;SDS011;5205;52.168;5.420;2023-11-19T09:37:14;29.60;;;4.28;;
10319;SDS011;5205;52.168;5.420;2023-11-19T09:39:41;26.67;;;5.43;;
10319;SDS011;5205;52.168;5.420;2023-11-19T09:42:10;24.83;;;3.80;;
10319;SDS011;5205;52.168;5.420;2023-11-19T09:44:37;26.05;;;4.35;;
10319;SDS011;5205;52.168;5.420;2023-11-19T09:47:07;37.95;;;3.80;;
10319;SDS011;5205;52.168;5.420;2023-11-19T09:49:35;31.58;;;5.00;;
10319;SDS011;5205;52.168;5.420;2023-11-19T09:52:02;26.60;;;6.30;;
10319;SDS011;5205;52.168;5.420;2023-11-19T09:54:29;38.15;;;5.05;;
10319;SDS011;5205;52.168;5.420;2023-11-19T09:56:57;27.58;;;3.63;;
10319;SDS011;5205;52.168;5.420;2023-11-19T09:59:29;33.75;;;5.15;;
10319;SDS011;5205;52.168;5.420;2023-11-19T10:01:56;36.42;;;4.00;;
10319;SDS011;5205;52.168;5.420;2023-11-19T10:04:24;23.55;;;4.13;;
10319;SDS011;5205;52.168;5.420;2023-11-19T10:06:52;32.15;;;4.43;;
10319;SDS011;5205;52.168;5.420;2023-11-19T10:09:19;27.48;;;4.68;;
10319;SDS011;5205;52.168;5.420;2023-11-19T10:11:46;23.73;;;3.97;;
10319;SDS011;5205;52.168;5.420;2023-11-19T10:14:14;19.73;;;4.28;;
10319;SDS011;5205;52.168;5.420;2023-11-19T10:16:45;26.33;;;4.32;;
10319;SDS011;5205;52.168;5.420;2023-11-19T10:19:12;23.65;;;4.40;;
10319;SDS011;5205;52.168;5.420;2023-11-19T10:21:45;23.20;;;3.95;;
10319;SDS011;5205;52.168;5.420;2023-11-19T10:24:13;24.80;;;3.95;;
10319;SDS011;5205;52.168;5.420;2023-11-19T10:26:40;35.28;;;5.50;;
10319;SDS011;5205;52.168;5.420;2023-11-19T10:29:08;23.98;;;4.32;;
10319;SDS011;5205;52.168;5.420;2023-11-19T10:31:35;25.58;;;4.07;;
10319;SDS011;5205;52.168;5.420;2023-11-19T10:34:03;30.20;;;5.25;;
10319;SDS011;5205;52.168;5.420;2023-11-19T10:36:37;38.65;;;4.28;;
10319;SDS011;5205;52.168;5.420;2023-11-19T10:39:05;29.05;;;4.32;;
10319;SDS011;5205;52.168;5.420;2023-11-19T10:41:34;21.90;;;3.40;;
10319;SDS011;5205;52.168;5.420;2023-11-19T10:44:01;25.73;;;4.25;;
10319;SDS011;5205;52.168;5.420;2023-11-19T10:46:37;17.27;;;3.88;;
10319;SDS011;5205;52.168;5.420;2023-11-19T10:49:07;25.02;;;3.28;;
10319;SDS011;5205;52.168;5.420;2023-11-19T10:51:34;28.50;;;4.82;;
10319;SDS011;5205;52.168;5.420;2023-11-19T10:54:02;22.20;;;3.63;;
10319;SDS011;5205;52.168;5.420;2023-11-19T10:56:31;31.30;;;4.35;;
10319;SDS011;5205;52.168;5.420;2023-11-19T10:58:58;34.20;;;5.68;;
10319;SDS011;5205;52.168;5.420;2023-11-19T11:01:26;27.88;;;3.92;;
10319;SDS011;5205;52.168;5.420;2023-11-19T11:03:56;26.60;;;5.10;;
10319;SDS011;5205;52.168;5.420;2023-11-19T11:06:27;20.05;;;4.13;;
10319;SDS011;5205;52.168;5.420;2023-11-19T11:08:55;24.77;;;4.25;;
10319;SDS011;5205;52.168;5.420;2023-11-19T11:11:22;23.27;;;3.20;;
10319;SDS011;5205;52.168;5.420;2023-11-19T11:13:49;25.98;;;4.30;;
10319;SDS011;5205;52.168;5.420;2023-11-19T11:16:17;31.52;;;3.53;;
10319;SDS011;5205;52.168;5.420;2023-11-19T11:18:45;29.42;;;4.25;;
10319;SDS011;5205;52.168;5.420;2023-11-19T11:21:15;26.17;;;4.07;;
10319;SDS011;5205;52.168;5.420;2023-11-19T11:26:39;19.42;;;3.35;;
10319;SDS011;5205;52.168;5.420;2023-11-19T11:29:10;25.05;;;4.13;;
10319;SDS011;5205;52.168;5.420;2023-11-19T11:31:43;23.50;;;3.67;;
10319;SDS011;5205;52.168;5.420;2023-11-19T11:34:24;17.15;;;3.05;;
10319;SDS011;5205;52.168;5.420;2023-11-19T11:36:53;24.40;;;4.10;;
10319;SDS011;5205;52.168;5.420;2023-11-19T11:39:24;25.88;;;3.55;;
10319;SDS011;5205;52.168;5.420;2023-11-19T11:47:24;20.45;;;3.88;;
10319;SDS011;5205;52.168;5.420;2023-11-19T11:49:51;25.33;;;3.65;;
10319;SDS011;5205;52.168;5.420;2023-11-19T11:52:19;20.58;;;3.80;;
10319;SDS011;5205;52.168;5.420;2023-11-19T11:54:46;16.23;;;3.90;;
10319;SDS011;5205;52.168;5.420;2023-11-19T11:57:14;29.95;;;4.28;;
10319;SDS011;5205;52.168;5.420;2023-11-19T11:59:45;25.90;;;4.05;;
10319;SDS011;5205;52.168;5.420;2023-11-19T12:02:12;21.83;;;5.20;;
10319;SDS011;5205;52.168;5.420;2023-11-19T12:04:41;24.70;;;4.30;;
10319;SDS011;5205;52.168;5.420;2023-11-19T12:07:11;22.88;;;4.18;;
10319;SDS011;5205;52.168;5.420;2023-11-19T12:09:39;25.33;;;3.67;;
10319;SDS011;5205;52.168;5.420;2023-11-19T12:12:07;25.50;;;5.05;;
10319;SDS011;5205;52.168;5.420;2023-11-19T12:20:20;22.77;;;3.85;;
10319;SDS011;5205;52.168;5.420;2023-11-19T12:22:48;19.98;;;3.83;;
10319;SDS011;5205;52.168;5.420;2023-11-19T12:25:16;21.13;;;3.35;;
10319;SDS011;5205;52.168;5.420;2023-11-19T12:27:45;28.35;;;3.55;;
10319;SDS011;5205;52.168;5.420;2023-11-19T12:30:12;28.67;;;4.18;;
10319;SDS011;5205;52.168;5.420;2023-11-19T12:32:40;21.15;;;3.15;;
10319;SDS011;5205;52.168;5.420;2023-11-19T12:35:07;18.60;;;2.97;;
10319;SDS011;5205;52.168;5.420;2023-11-19T12:37:41;22.30;;;3.88;;
10319;SDS011;5205;52.168;5.420;2023-11-19T12:40:18;19.08;;;3.20;;
10319;SDS011;5205;52.168;5.420;2023-11-19T12:42:46;18.55;;;3.30;;
10319;SDS011;5205;52.168;5.420;2023-11-19T12:45:13;24.63;;;3.58;;
10319;SDS011;5205;52.168;5.420;2023-11-19T12:47:41;19.60;;;3.70;;
10319;SDS011;5205;52.168;5.420;2023-11-19T12:50:09;25.70;;;3.65;;
10319;SDS011;5205;52.168;5.420;2023-11-19T12:52:36;18.25;;;4.35;;
10319;SDS011;5205;52.168;5.420;2023-11-19T12:55:23;15.65;;;2.75;;
10319;SDS011;5205;52.168;5.420;2023-11-19T12:57:50;21.08;;;3.33;;
10319;SDS011;5205;52.168;5.420;2023-11-19T13:00:19;17.45;;;3.03;;
10319;SDS011;5205;52.168;5.420;2023-11-19T13:02:47;20.70;;;3.00;;
10319;SDS011;5205;52.168;5.420;2023-11-19T13:05:24;20.08;;;2.72;;
10319;SDS011;5205;52.168;5.420;2023-11-19T13:07:57;16.30;;;3.38;;
10319;SDS011;5205;52.168;5.420;2023-11-19T13:10:26;18.25;;;3.85;;
10319;SDS011;5205;52.168;5.420;2023-11-19T13:12:59;20.20;;;2.78;;
10319;SDS011;5205;52.168;5.420;2023-11-19T13:15:27;16.35;;;2.72;;
10319;SDS011;5205;52.168;5.420;2023-11-19T13:17:54;22.15;;;2.92;;
10319;SDS011;5205;52.168;5.420;2023-11-19T13:20:21;19.10;;;3.00;;
10319;SDS011;5205;52.168;5.420;2023-11-19T13:22:54;18.77;;;3.35;;
10319;SDS011;5205;52.168;5.420;2023-11-19T13:25:21;20.02;;;3.33;;
10319;SDS011;5205;52.168;5.420;2023-11-19T13:27:50;21.50;;;2.72;;
10319;SDS011;5205;52.168;5.420;2023-11-19T13:30:17;19.75;;;3.08;;
10319;SDS011;5205;52.168;5.420;2023-11-19T13:32:44;21.95;;;3.17;;
10319;SDS011;5205;52.168;5.420;2023-11-19T13:35:11;15.98;;;3.15;;
10319;SDS011;5205;52.168;5.420;2023-11-19T13:37:39;24.52;;;3.53;;
10319;SDS011;5205;52.168;5.420;2023-11-19T13:40:06;21.30;;;4.28;;
10319;SDS011;5205;52.168;5.420;2023-11-19T13:42:37;28.67;;;4.90;;
10319;SDS011;5205;52.168;5.420;2023-11-19T13:45:08;23.23;;;4.22;;
10319;SDS011;5205;52.168;5.420;2023-11-19T13:47:38;21.42;;;4.07;;
10319;SDS011;5205;52.168;5.420;2023-11-19T13:50:07;23.10;;;3.65;;
10319;SDS011;5205;52.168;5.420;2023-11-19T13:52:34;17.25;;;3.05;;
10319;SDS011;5205;52.168;5.420;2023-11-19T13:55:04;23.42;;;3.80;;
10319;SDS011;5205;52.168;5.420;2023-11-19T13:57:31;22.50;;;3.28;;
10319;SDS011;5205;52.168;5.420;2023-11-19T13:59:59;18.00;;;3.67;;
10319;SDS011;5205;52.168;5.420;2023-11-19T14:02:28;29.50;;;4.38;;
10319;SDS011;5205;52.168;5.420;2023-11-19T14:04:55;24.63;;;3.63;;
10319;SDS011;5205;52.168;5.420;2023-11-19T14:07:22;18.75;;;3.35;;
10319;SDS011;5205;52.168;5.420;2023-11-19T14:09:50;20.30;;;3.38;;
10319;SDS011;5205;52.168;5.420;2023-11-19T14:12:17;22.42;;;3.58;;
10319;SDS011;5205;52.168;5.420;2023-11-19T14:14:44;20.67;;;3.90;;
10319;SDS011;5205;52.168;5.420;2023-11-19T14:17:12;18.52;;;3.90;;
10319;SDS011;5205;52.168;5.420;2023-11-19T14:19:41;24.13;;;3.63;;
10319;SDS011;5205;52.168;5.420;2023-11-19T14:22:09;19.83;;;4.13;;
10319;SDS011;5205;52.168;5.420;2023-11-19T14:24:35;22.02;;;3.88;;
10319;SDS011;5205;52.168;5.420;2023-11-19T14:27:02;18.92;;;3.90;;
10319;SDS011;5205;52.168;5.420;2023-11-19T14:29:29;18.23;;;3.22;;
10319;SDS011;5205;52.168;5.420;2023-11-19T14:31:56;22.85;;;3.80;;
10319;SDS011;5205;52.168;5.420;2023-11-19T14:34:24;23.70;;;4.13;;
10319;SDS011;5205;52.168;5.420;2023-11-19T14:36:53;23.02;;;3.47;;
10319;SDS011;5205;52.168;5.420;2023-11-19T14:39:20;20.73;;;3.83;;
10319;SDS011;5205;52.168;5.420;2023-11-19T14:41:47;19.55;;;3.42;;
10319;SDS011;5205;52.168;5.420;2023-11-19T14:44:15;29.40;;;4.50;;
10319;SDS011;5205;52.168;5.420;2023-11-19T14:46:44;21.50;;;3.53;;
10319;SDS011;5205;52.168;5.420;2023-11-19T14:49:12;16.05;;;3.20;;
10319;SDS011;5205;52.168;5.420;2023-11-19T14:51:39;35.38;;;3.78;;
10319;SDS011;5205;52.168;5.420;2023-11-19T14:54:07;23.35;;;3.55;;
10319;SDS011;5205;52.168;5.420;2023-11-19T14:56:34;21.67;;;4.03;;
10319;SDS011;5205;52.168;5.420;2023-11-19T14:59:03;20.30;;;2.90;;
10319;SDS011;5205;52.168;5.420;2023-11-19T15:01:31;26.67;;;4.22;;
10319;SDS011;5205;52.168;5.420;2023-11-19T15:03:58;19.67;;;3.08;;
10319;SDS011;5205;52.168;5.420;2023-11-19T15:06:25;23.30;;;3.42;;
10319;SDS011;5205;52.168;5.420;2023-11-19T15:08:53;32.20;;;4.28;;